createdAt,value
2019-03-22T00:00:13.505Z,1021.89
2019-03-22T00:00:53.922Z,1021.87
2019-03-22T00:01:34.341Z,1021.85
2019-03-22T00:02:14.759Z,1021.87
2019-03-22T00:02:55.184Z,1021.86
2019-03-22T00:03:35.592Z,1021.81
2019-03-22T00:04:16.026Z,1021.82
2019-03-22T00:04:56.424Z,1021.85
2019-03-22T00:05:36.831Z,1021.83
2019-03-22T00:06:17.244Z,1021.82
2019-03-22T00:06:57.606Z,1021.81
2019-03-22T00:07:38.030Z,1021.84
2019-03-22T00:08:18.416Z,1021.79
2019-03-22T00:08:58.846Z,1021.8
2019-03-22T00:09:39.262Z,1021.82
2019-03-22T00:10:19.698Z,1021.76
2019-03-22T00:11:00.122Z,1021.79
2019-03-22T00:11:40.532Z,1021.77
2019-03-22T00:12:20.943Z,1021.75
2019-03-22T00:13:01.360Z,1021.74
2019-03-22T00:13:41.801Z,1021.73
2019-03-22T00:14:22.195Z,1021.74
2019-03-22T00:15:02.615Z,1021.74
2019-03-22T00:18:05.109Z,1021.78
2019-03-22T00:18:45.503Z,1021.76
2019-03-22T00:19:25.907Z,1021.76
2019-03-22T00:20:06.298Z,1021.78
2019-03-22T00:20:46.730Z,1021.78
2019-03-22T00:21:27.133Z,1021.81
2019-03-22T00:22:07.497Z,1021.86
2019-03-22T00:22:47.896Z,1021.83
2019-03-22T00:23:28.274Z,1021.78
2019-03-22T00:24:08.683Z,1021.8
2019-03-22T00:24:49.051Z,1021.81
2019-03-22T00:25:29.439Z,1021.83
2019-03-22T00:26:09.792Z,1021.84
2019-03-22T00:26:50.276Z,1021.8
2019-03-22T00:27:30.649Z,1021.82
2019-03-22T00:28:11.080Z,1021.83
2019-03-22T00:28:51.500Z,1021.84
2019-03-22T00:29:31.971Z,1021.8
2019-03-22T00:30:12.406Z,1021.82
2019-03-22T00:30:52.773Z,1021.83
2019-03-22T00:31:33.150Z,1021.82
2019-03-22T00:33:34.737Z,1021.84
2019-03-22T00:34:25.457Z,1021.78
2019-03-22T00:35:19.249Z,1021.78
2019-03-22T00:36:13.882Z,1021.81
2019-03-22T00:37:05.417Z,1021.81
2019-03-22T00:38:04.617Z,1021.83
2019-03-22T00:38:57.674Z,1021.83
2019-03-22T00:41:06.110Z,1021.81
2019-03-22T00:41:57.046Z,1021.82
2019-03-22T00:43:58.267Z,1021.84
2019-03-22T00:44:38.475Z,1021.82
2019-03-22T00:45:18.852Z,1021.83
2019-03-22T00:45:59.286Z,1021.86
2019-03-22T00:46:39.691Z,1021.86
2019-03-22T00:47:20.071Z,1021.86
2019-03-22T00:48:00.463Z,1021.84
2019-03-22T00:48:40.856Z,1021.85
2019-03-22T00:49:21.275Z,1021.84
2019-03-22T00:50:01.668Z,1021.88
2019-03-22T00:50:42.089Z,1021.89
2019-03-22T00:51:22.507Z,1021.91
2019-03-22T00:52:02.947Z,1021.88
2019-03-22T00:52:43.360Z,1021.84
2019-03-22T00:53:23.798Z,1021.91
2019-03-22T00:54:04.218Z,1021.9
2019-03-22T01:00:25.444Z,1021.87
2019-03-22T01:01:05.752Z,1021.87
2019-03-22T01:01:46.190Z,1021.83
2019-03-22T01:02:26.606Z,1021.83
2019-03-22T01:03:07.105Z,1021.83
2019-03-22T01:03:47.540Z,1021.81
2019-03-22T01:04:27.923Z,1021.78
2019-03-22T01:05:08.346Z,1021.77
2019-03-22T01:05:48.770Z,1021.76
2019-03-22T01:06:29.246Z,1021.76
2019-03-22T01:07:09.595Z,1021.74
2019-03-22T01:07:50.006Z,1021.77
2019-03-22T01:08:30.434Z,1021.77
2019-03-22T01:09:10.852Z,1021.75
2019-03-22T01:09:51.262Z,1021.76
2019-03-22T01:10:31.697Z,1021.76
2019-03-22T01:13:16.803Z,1021.74
2019-03-22T01:16:21.125Z,1021.68
2019-03-22T01:17:34.169Z,1021.66
2019-03-22T01:18:54.571Z,1021.69
2019-03-22T01:20:11.278Z,1021.66
2019-03-22T01:21:27.726Z,1021.66
2019-03-22T01:22:42.500Z,1021.68
2019-03-22T01:24:00.749Z,1021.68
2019-03-22T01:25:22.193Z,1021.68
2019-03-22T01:26:39.865Z,1021.66
2019-03-22T01:28:01.702Z,1021.58
2019-03-22T01:32:06.299Z,1021.57
2019-03-22T01:32:46.670Z,1021.57
2019-03-22T01:33:27.064Z,1021.56
2019-03-22T01:34:07.473Z,1021.53
2019-03-22T01:34:47.831Z,1021.56
2019-03-22T01:35:28.270Z,1021.55
2019-03-22T01:36:08.664Z,1021.54
2019-03-22T01:36:49.085Z,1021.51
2019-03-22T01:37:29.518Z,1021.52
2019-03-22T01:38:09.940Z,1021.5
2019-03-22T01:38:50.361Z,1021.53
2019-03-22T01:39:30.779Z,1021.47
2019-03-22T01:40:11.199Z,1021.49
2019-03-22T01:40:51.625Z,1021.49
2019-03-22T01:41:32.058Z,1021.48
2019-03-22T01:42:12.475Z,1021.51
2019-03-22T01:42:52.881Z,1021.49
2019-03-22T01:43:33.280Z,1021.51
2019-03-22T01:44:13.713Z,1021.51
2019-03-22T01:44:54.122Z,1021.48
2019-03-22T01:45:34.550Z,1021.48
2019-03-22T01:46:14.946Z,1021.51
2019-03-22T01:46:55.365Z,1021.49
2019-03-22T01:47:35.779Z,1021.49
2019-03-22T01:48:16.187Z,1021.5
2019-03-22T01:48:56.560Z,1021.52
2019-03-22T01:49:37.001Z,1021.47
2019-03-22T01:50:17.385Z,1021.45
2019-03-22T01:50:57.832Z,1021.52
2019-03-22T01:51:38.254Z,1021.47
2019-03-22T01:52:18.654Z,1021.44
2019-03-22T01:52:59.081Z,1021.49
2019-03-22T01:53:39.505Z,1021.48
2019-03-22T01:54:19.993Z,1021.52
2019-03-22T01:55:00.406Z,1021.51
2019-03-22T01:55:40.804Z,1021.52
2019-03-22T01:56:21.181Z,1021.52
2019-03-22T01:57:01.607Z,1021.51
2019-03-22T01:57:52.214Z,1021.48
2019-03-22T01:58:22.445Z,1021.5
2019-03-22T01:59:02.847Z,1021.48
2019-03-22T01:59:43.311Z,1021.48
2019-03-22T02:00:23.673Z,1021.47
2019-03-22T02:01:04.116Z,1021.43
2019-03-22T02:01:44.505Z,1021.48
2019-03-22T02:02:24.942Z,1021.48
2019-03-22T02:03:05.364Z,1021.46
2019-03-22T02:03:45.788Z,1021.48
2019-03-22T02:04:26.216Z,1021.51
2019-03-22T02:05:06.646Z,1021.48
2019-03-22T02:05:47.079Z,1021.52
2019-03-22T02:06:27.485Z,1021.48
2019-03-22T02:07:07.886Z,1021.49
2019-03-22T02:07:48.324Z,1021.48
2019-03-22T02:08:28.716Z,1021.49
2019-03-22T02:09:09.135Z,1021.52
2019-03-22T02:09:49.557Z,1021.54
2019-03-22T02:10:29.991Z,1021.52
2019-03-22T02:11:10.423Z,1021.5
2019-03-22T02:11:50.839Z,1021.53
2019-03-22T02:12:31.239Z,1021.5
2019-03-22T02:13:11.677Z,1021.5
2019-03-22T02:13:52.113Z,1021.45
2019-03-22T02:14:32.508Z,1021.49
2019-03-22T02:15:12.934Z,1021.49
2019-03-22T02:15:53.265Z,1021.5
2019-03-22T02:16:33.679Z,1021.49
2019-03-22T02:17:14.107Z,1021.51
2019-03-22T02:17:54.534Z,1021.47
2019-03-22T02:18:34.951Z,1021.49
2019-03-22T02:19:15.378Z,1021.48
2019-03-22T02:19:55.813Z,1021.51
2019-03-22T02:20:36.235Z,1021.49
2019-03-22T02:21:16.637Z,1021.49
2019-03-22T02:21:57.037Z,1021.47
2019-03-22T02:22:37.457Z,1021.47
2019-03-22T02:23:17.879Z,1021.49
2019-03-22T02:23:58.303Z,1021.46
2019-03-22T02:24:38.751Z,1021.46
2019-03-22T02:25:19.161Z,1021.49
2019-03-22T02:25:59.576Z,1021.43
2019-03-22T02:26:40.109Z,1021.43
2019-03-22T02:27:20.519Z,1021.4
2019-03-22T02:28:04.258Z,1021.36
2019-03-22T02:28:41.349Z,1021.38
2019-03-22T02:29:21.765Z,1021.35
2019-03-22T02:30:02.202Z,1021.33
2019-03-22T02:30:42.607Z,1021.35
2019-03-22T02:31:23.018Z,1021.32
2019-03-22T02:32:03.436Z,1021.33
2019-03-22T02:32:43.845Z,1021.31
2019-03-22T02:33:24.275Z,1021.32
2019-03-22T02:34:04.691Z,1021.29
2019-03-22T02:34:45.107Z,1021.32
2019-03-22T02:35:28.704Z,1021.33
2019-03-22T02:36:05.961Z,1021.3
2019-03-22T02:36:46.392Z,1021.3
2019-03-22T02:37:26.806Z,1021.33
2019-03-22T02:38:07.215Z,1021.32
2019-03-22T02:38:47.619Z,1021.34
2019-03-22T02:39:28.104Z,1021.33
2019-03-22T02:40:08.427Z,1021.3
2019-03-22T02:40:48.835Z,1021.36
2019-03-22T02:41:29.261Z,1021.31
2019-03-22T02:42:09.677Z,1021.31
2019-03-22T02:42:50.108Z,1021.33
2019-03-22T02:43:30.526Z,1021.32
2019-03-22T02:44:10.954Z,1021.31
2019-03-22T02:44:51.379Z,1021.3
2019-03-22T02:45:31.814Z,1021.3
2019-03-22T02:46:12.288Z,1021.25
2019-03-22T02:46:52.709Z,1021.27
2019-03-22T02:47:33.125Z,1021.21
2019-03-22T02:48:13.554Z,1021.23
2019-03-22T02:48:53.974Z,1021.17
2019-03-22T02:49:34.416Z,1021.25
2019-03-22T02:50:18.333Z,1021.25
2019-03-22T02:50:56.228Z,1021.25
2019-03-22T02:51:35.666Z,1021.23
2019-03-22T02:52:16.071Z,1021.26
2019-03-22T02:52:56.498Z,1021.22
2019-03-22T02:53:36.928Z,1021.28
2019-03-22T02:54:17.342Z,1021.23
2019-03-22T02:54:57.762Z,1021.26
2019-03-22T02:55:38.197Z,1021.27
2019-03-22T02:56:18.632Z,1021.26
2019-03-22T02:56:59.000Z,1021.23
2019-03-22T02:57:39.401Z,1021.24
2019-03-22T02:58:21.321Z,1021.22
2019-03-22T02:59:00.242Z,1021.23
2019-03-22T02:59:40.656Z,1021.24
2019-03-22T03:00:21.072Z,1021.22
2019-03-22T03:01:01.501Z,1021.22
2019-03-22T03:01:41.923Z,1021.23
2019-03-22T03:02:22.366Z,1021.24
2019-03-22T03:03:02.783Z,1021.23
2019-03-22T03:03:43.214Z,1021.24
2019-03-22T03:04:23.639Z,1021.25
2019-03-22T03:05:04.070Z,1021.25
2019-03-22T03:05:44.480Z,1021.23
2019-03-22T03:06:24.910Z,1021.24
2019-03-22T03:07:05.337Z,1021.28
2019-03-22T03:07:45.766Z,1021.25
2019-03-22T03:08:26.202Z,1021.25
2019-03-22T03:09:06.636Z,1021.24
2019-03-22T03:09:47.054Z,1021.23
2019-03-22T03:10:27.499Z,1021.24
2019-03-22T03:11:07.872Z,1021.22
2019-03-22T03:11:48.280Z,1021.23
2019-03-22T03:12:28.693Z,1021.25
2019-03-22T03:13:09.099Z,1021.23
2019-03-22T03:13:49.507Z,1021.2
2019-03-22T03:14:29.924Z,1021.24
2019-03-22T03:15:10.344Z,1021.23
2019-03-22T03:15:50.759Z,1021.23
2019-03-22T03:16:31.160Z,1021.26
2019-03-22T03:17:11.587Z,1021.24
2019-03-22T03:17:52.014Z,1021.27
2019-03-22T03:18:32.439Z,1021.25
2019-03-22T03:19:12.875Z,1021.24
2019-03-22T03:19:53.270Z,1021.21
2019-03-22T03:20:33.668Z,1021.21
2019-03-22T03:21:14.090Z,1021.24
2019-03-22T03:21:54.525Z,1021.21
2019-03-22T03:22:34.941Z,1021.21
2019-03-22T03:23:15.354Z,1021.2
2019-03-22T03:23:55.774Z,1021.18
2019-03-22T03:24:36.200Z,1021.18
2019-03-22T03:25:17.659Z,1021.16
2019-03-22T03:25:58.099Z,1021.19
2019-03-22T03:26:38.499Z,1021.14
2019-03-22T03:27:25.791Z,1021.16
2019-03-22T03:28:06.200Z,1021.13
2019-03-22T03:28:46.655Z,1021.11
2019-03-22T03:29:27.091Z,1021.12
2019-03-22T03:30:07.508Z,1021.11
2019-03-22T03:30:47.940Z,1021.12
2019-03-22T03:31:28.347Z,1021.07
2019-03-22T03:32:08.742Z,1021.1
2019-03-22T03:32:49.280Z,1021.08
2019-03-22T03:33:29.535Z,1021.12
2019-03-22T03:34:10.005Z,1021.11
2019-03-22T03:34:50.394Z,1021.09
2019-03-22T03:35:30.814Z,1021.14
2019-03-22T03:36:11.220Z,1021.12
2019-03-22T03:36:51.649Z,1021.12
2019-03-22T03:37:32.070Z,1021.13
2019-03-22T03:38:12.498Z,1021.14
2019-03-22T03:38:52.927Z,1021.17
2019-03-22T03:39:33.342Z,1021.16
2019-03-22T03:40:13.769Z,1021.15
2019-03-22T03:40:54.169Z,1021.15
2019-03-22T03:41:34.602Z,1021.2
2019-03-22T03:42:15.028Z,1021.16
2019-03-22T03:42:55.438Z,1021.2
2019-03-22T03:43:35.885Z,1021.12
2019-03-22T03:44:16.323Z,1021.13
2019-03-22T03:44:56.747Z,1021.13
2019-03-22T03:45:37.182Z,1021.11
2019-03-22T03:46:17.605Z,1021.1
2019-03-22T03:46:58.016Z,1021.09
2019-03-22T03:47:38.458Z,1021.07
2019-03-22T03:48:18.858Z,1021.03
2019-03-22T03:48:59.267Z,1021.06
2019-03-22T03:49:39.678Z,1021.06
2019-03-22T03:50:20.109Z,1021.09
2019-03-22T03:51:00.547Z,1021.07
2019-03-22T03:51:40.983Z,1021.03
2019-03-22T03:52:21.411Z,1021.03
2019-03-22T03:53:01.847Z,1021.01
2019-03-22T03:53:42.278Z,1021.03
2019-03-22T03:54:22.690Z,1021.02
2019-03-22T03:55:03.153Z,1021.02
2019-03-22T03:55:43.521Z,1021.04
2019-03-22T03:56:23.896Z,1021
2019-03-22T03:57:04.340Z,1021
2019-03-22T03:57:44.768Z,1021.02
2019-03-22T03:58:25.202Z,1021.01
2019-03-22T03:59:05.624Z,1021.05
2019-03-22T03:59:46.061Z,1021.02
2019-03-22T04:00:26.584Z,1021.06
2019-03-22T04:01:06.913Z,1021.08
2019-03-22T04:01:47.337Z,1021.06
2019-03-22T04:02:27.763Z,1021.09
2019-03-22T04:03:08.195Z,1021.08
2019-03-22T04:03:48.620Z,1021.07
2019-03-22T04:04:29.036Z,1021.08
2019-03-22T04:05:09.466Z,1021.05
2019-03-22T04:05:49.945Z,1021.03
2019-03-22T04:06:30.381Z,1021.04
2019-03-22T04:07:10.817Z,1021.02
2019-03-22T04:07:51.257Z,1021.07
2019-03-22T04:08:31.641Z,1021.07
2019-03-22T04:09:12.055Z,1021.04
2019-03-22T04:09:52.531Z,1021.05
2019-03-22T04:10:32.907Z,1021.06
2019-03-22T04:11:13.298Z,1021.06
2019-03-22T04:11:53.722Z,1021.06
2019-03-22T04:12:34.131Z,1021.08
2019-03-22T04:13:14.555Z,1021.1
2019-03-22T04:13:54.969Z,1021.11
2019-03-22T04:14:35.405Z,1021.14
2019-03-22T04:15:15.824Z,1021.13
2019-03-22T04:15:56.248Z,1021.1
2019-03-22T04:16:36.641Z,1021.13
2019-03-22T04:17:17.007Z,1021.12
2019-03-22T04:17:57.405Z,1021.12
2019-03-22T04:18:37.849Z,1021.15
2019-03-22T04:19:18.267Z,1021.13
2019-03-22T04:19:58.714Z,1021.12
2019-03-22T04:20:39.144Z,1021.16
2019-03-22T04:21:19.558Z,1021.13
2019-03-22T04:21:59.995Z,1021.1
2019-03-22T04:22:40.425Z,1021.13
2019-03-22T04:23:20.868Z,1021.09
2019-03-22T04:24:01.276Z,1021.09
2019-03-22T04:24:41.697Z,1021.06
2019-03-22T04:25:22.099Z,1021.04
2019-03-22T04:26:02.473Z,1021.04
2019-03-22T04:26:42.930Z,1021.02
2019-03-22T04:27:23.329Z,1021.03
2019-03-22T05:09:40.126Z,1021.07
2019-03-22T05:10:34.930Z,1021.09
2019-03-22T05:11:20.419Z,1021.11
2019-03-22T05:13:20.900Z,1021.09
2019-03-22T05:14:11.699Z,1021.11
2019-03-22T05:16:55.554Z,1021.07
2019-03-22T05:18:05.224Z,1021.13
2019-03-22T05:19:16.996Z,1021.15
2019-03-22T05:20:30.950Z,1021.17
2019-03-22T05:21:55.354Z,1021.09
2019-03-22T05:23:13.094Z,1021.17
2019-03-22T05:24:31.237Z,1021.14
2019-03-22T05:25:43.528Z,1021.16
2019-03-22T05:27:02.918Z,1021.15
2019-03-22T05:28:36.421Z,1021.11
2019-03-22T05:30:12.454Z,1021.11
2019-03-22T05:31:28.736Z,1021.14
2019-03-22T05:32:51.559Z,1021.13
2019-03-22T05:34:10.126Z,1021.15
2019-03-22T05:35:25.856Z,1021.16
2019-03-22T05:36:34.876Z,1021.15
2019-03-22T05:37:56.490Z,1021.13
2019-03-22T05:39:20.451Z,1021.2
2019-03-22T05:40:47.626Z,1021.19
2019-03-22T05:42:16.075Z,1021.24
2019-03-22T05:44:37.106Z,1021.14
2019-03-22T05:46:05.421Z,1021.16
2019-03-22T05:47:20.303Z,1021.19
2019-03-22T05:48:38.663Z,1021.2
2019-03-22T05:50:16.854Z,1021.22
2019-03-22T05:51:51.345Z,1021.2
2019-03-22T05:53:18.563Z,1021.26
2019-03-22T05:54:40.357Z,1021.22
2019-03-22T05:56:13.765Z,1021.31
2019-03-22T05:57:32.592Z,1021.29
2019-03-22T05:59:00.071Z,1021.27
2019-03-22T06:00:33.891Z,1021.24
2019-03-22T06:02:04.620Z,1021.23
2019-03-22T06:03:28.889Z,1021.21
2019-03-22T06:05:14.531Z,1021.2
2019-03-22T06:10:48.592Z,1021.22
2019-03-22T06:11:29.410Z,1021.29
2019-03-22T06:12:24.495Z,1021.27
2019-03-22T06:13:04.896Z,1021.31
2019-03-22T06:13:45.320Z,1021.3
2019-03-22T06:14:25.727Z,1021.26
2019-03-22T06:15:06.146Z,1021.32
2019-03-22T06:15:46.514Z,1021.32
2019-03-22T06:16:26.947Z,1021.36
2019-03-22T06:17:07.382Z,1021.32
2019-03-22T06:17:51.777Z,1021.32
2019-03-22T06:18:28.219Z,1021.36
2019-03-22T06:19:08.630Z,1021.35
2019-03-22T06:19:49.033Z,1021.33
2019-03-22T06:20:29.392Z,1021.32
2019-03-22T06:21:09.787Z,1021.33
2019-03-22T06:21:50.181Z,1021.38
2019-03-22T06:22:30.609Z,1021.36
2019-03-22T06:23:10.988Z,1021.35
2019-03-22T06:23:51.442Z,1021.35
2019-03-22T06:24:31.799Z,1021.38
2019-03-22T06:25:12.196Z,1021.36
2019-03-22T06:25:52.613Z,1021.33
2019-03-22T06:26:33.001Z,1021.36
2019-03-22T06:27:13.436Z,1021.35
2019-03-22T06:27:53.895Z,1021.35
2019-03-22T06:28:34.320Z,1021.31
2019-03-22T06:29:14.686Z,1021.36
2019-03-22T06:29:56.670Z,1021.3
2019-03-22T06:30:37.096Z,1021.33
2019-03-22T06:31:17.515Z,1021.32
2019-03-22T06:31:58.881Z,1021.29
2019-03-22T06:32:39.259Z,1021.29
2019-03-22T06:33:19.787Z,1021.26
2019-03-22T06:34:00.194Z,1021.3
2019-03-22T06:34:40.542Z,1021.26
2019-03-22T06:35:20.958Z,1021.27
2019-03-22T06:36:02.313Z,1021.3
2019-03-22T06:36:42.769Z,1021.25
2019-03-22T06:37:23.260Z,1021.23
2019-03-22T06:38:03.705Z,1021.23
2019-03-22T06:38:45.086Z,1021.27
2019-03-22T06:39:29.989Z,1021.23
2019-03-22T06:41:23.335Z,1021.21
2019-03-22T06:42:07.078Z,1021.23
2019-03-22T06:42:47.511Z,1021.25
2019-03-22T06:43:27.946Z,1021.26
2019-03-22T06:44:08.349Z,1021.28
2019-03-22T06:44:48.756Z,1021.26
2019-03-22T06:45:29.214Z,1021.3
2019-03-22T06:46:09.604Z,1021.32
2019-03-22T06:46:50.005Z,1021.33
2019-03-22T06:47:30.427Z,1021.36
2019-03-22T06:48:11.188Z,1021.3
2019-03-22T06:48:52.807Z,1021.33
2019-03-22T06:49:33.210Z,1021.33
2019-03-22T06:50:13.658Z,1021.35
2019-03-22T06:50:54.108Z,1021.37
2019-03-22T06:51:35.506Z,1021.31
2019-03-22T06:52:15.753Z,1021.34
2019-03-22T06:52:56.153Z,1021.34
2019-03-22T06:53:36.595Z,1021.33
2019-03-22T06:54:17.366Z,1021.35
2019-03-22T06:54:57.774Z,1021.35
2019-03-22T06:55:38.195Z,1021.37
2019-03-22T06:56:18.624Z,1021.37
2019-03-22T06:56:59.135Z,1021.39
2019-03-22T06:57:39.576Z,1021.37
2019-03-22T06:58:19.979Z,1021.38
2019-03-22T06:59:00.563Z,1021.38
2019-03-22T06:59:40.977Z,1021.39
2019-03-22T07:00:21.444Z,1021.45
2019-03-22T07:01:02.123Z,1021.45
2019-03-22T07:01:42.530Z,1021.45
2019-03-22T07:02:22.969Z,1021.47
2019-03-22T07:03:03.403Z,1021.43
2019-03-22T07:03:44.024Z,1021.48
2019-03-22T07:04:25.357Z,1021.47
2019-03-22T07:05:05.827Z,1021.47
2019-03-22T07:05:46.887Z,1021.46
2019-03-22T07:06:27.369Z,1021.47
2019-03-22T07:07:07.824Z,1021.45
2019-03-22T07:07:48.297Z,1021.44
2019-03-22T07:08:31.040Z,1021.5
2019-03-22T07:09:10.284Z,1021.53
2019-03-22T07:09:50.763Z,1021.53
2019-03-22T07:10:32.193Z,1021.52
2019-03-22T07:11:12.796Z,1021.55
2019-03-22T07:11:53.565Z,1021.54
2019-03-22T07:12:34.000Z,1021.54
2019-03-22T07:13:14.518Z,1021.54
2019-03-22T07:13:55.206Z,1021.54
2019-03-22T07:14:38.194Z,1021.59
2019-03-22T07:15:20.364Z,1021.56
2019-03-22T07:16:00.741Z,1021.56
2019-03-22T07:16:41.161Z,1021.6
2019-03-22T07:17:21.581Z,1021.63
2019-03-22T07:18:02.066Z,1021.62
2019-03-22T07:18:42.464Z,1021.61
2019-03-22T07:19:22.858Z,1021.63
2019-03-22T07:20:03.326Z,1021.62
2019-03-22T07:20:44.089Z,1021.64
2019-03-22T07:21:24.595Z,1021.61
2019-03-22T07:22:04.967Z,1021.63
2019-03-22T07:22:45.402Z,1021.62
2019-03-22T07:23:25.868Z,1021.61
2019-03-22T07:24:06.462Z,1021.57
2019-03-22T07:24:47.447Z,1021.6
2019-03-22T07:25:27.892Z,1021.58
2019-03-22T07:26:08.323Z,1021.6
2019-03-22T07:26:48.980Z,1021.58
2019-03-22T07:27:29.385Z,1021.61
2019-03-22T07:28:09.824Z,1021.58
2019-03-22T07:28:50.377Z,1021.6
2019-03-22T07:29:30.852Z,1021.6
2019-03-22T07:30:18.361Z,1021.55
2019-03-22T07:30:51.720Z,1021.58
2019-03-22T07:31:32.140Z,1021.64
2019-03-22T07:32:12.576Z,1021.6
2019-03-22T07:32:52.974Z,1021.66
2019-03-22T07:33:34.082Z,1021.64
2019-03-22T07:34:14.493Z,1021.65
2019-03-22T07:34:54.925Z,1021.7
2019-03-22T07:35:35.419Z,1021.7
2019-03-22T07:36:15.864Z,1021.69
2019-03-22T07:36:56.308Z,1021.71
2019-03-22T07:37:36.906Z,1021.72
2019-03-22T07:38:17.326Z,1021.72
2019-03-22T07:38:57.782Z,1021.74
2019-03-22T07:39:38.296Z,1021.73
2019-03-22T07:40:20.555Z,1021.76
2019-03-22T07:41:00.338Z,1021.73
2019-03-22T07:41:40.880Z,1021.78
2019-03-22T07:42:21.352Z,1021.71
2019-03-22T07:43:01.908Z,1021.74
2019-03-22T07:43:42.620Z,1021.73
2019-03-22T07:44:24.796Z,1021.73
2019-03-22T07:45:05.187Z,1021.73
2019-03-22T07:45:45.616Z,1021.77
2019-03-22T07:46:40.820Z,1021.76
2019-03-22T07:47:21.358Z,1021.79
2019-03-22T07:48:01.770Z,1021.78
2019-03-22T07:48:42.188Z,1021.8
2019-03-22T07:49:22.620Z,1021.8
2019-03-22T07:50:03.056Z,1021.79
2019-03-22T07:50:43.614Z,1021.81
2019-03-22T07:51:24.123Z,1021.83
2019-03-22T07:52:05.568Z,1021.83
2019-03-22T07:52:45.995Z,1021.82
2019-03-22T07:53:26.504Z,1021.81
2019-03-22T07:54:06.916Z,1021.77
2019-03-22T07:54:47.387Z,1021.76
2019-03-22T07:55:28.158Z,1021.77
2019-03-22T07:56:08.683Z,1021.76
2019-03-22T07:56:49.053Z,1021.73
2019-03-22T07:57:29.560Z,1021.78
2019-03-22T07:58:10.011Z,1021.8
2019-03-22T07:58:50.608Z,1021.73
2019-03-22T07:59:31.032Z,1021.77
2019-03-22T08:00:11.605Z,1021.74
2019-03-22T08:00:52.122Z,1021.74
2019-03-22T08:01:32.497Z,1021.75
2019-03-22T08:02:14.088Z,1021.77
2019-03-22T08:02:54.513Z,1021.78
2019-03-22T08:03:35.887Z,1021.76
2019-03-22T08:04:16.384Z,1021.8
2019-03-22T08:04:56.790Z,1021.79
2019-03-22T08:05:37.191Z,1021.77
2019-03-22T08:06:18.536Z,1021.8
2019-03-22T08:07:01.214Z,1021.79
2019-03-22T08:07:39.553Z,1021.78
2019-03-22T08:08:20.194Z,1021.78
2019-03-22T08:09:01.149Z,1021.81
2019-03-22T08:09:42.595Z,1021.77
2019-03-22T08:10:22.504Z,1021.77
2019-03-22T08:11:02.877Z,1021.78
2019-03-22T08:11:43.307Z,1021.76
2019-03-22T08:12:24.595Z,1021.73
2019-03-22T08:13:05.036Z,1021.81
2019-03-22T08:13:46.266Z,1021.78
2019-03-22T08:14:27.727Z,1021.78
2019-03-22T08:15:08.619Z,1021.82
2019-03-22T08:15:48.591Z,1021.81
2019-03-22T08:16:29.151Z,1021.83
2019-03-22T08:17:09.503Z,1021.84
2019-03-22T08:17:49.943Z,1021.83
2019-03-22T08:18:31.153Z,1021.84
2019-03-22T08:19:13.402Z,1021.87
2019-03-22T08:19:53.961Z,1021.82
2019-03-22T08:20:34.442Z,1021.83
2019-03-22T08:21:15.018Z,1021.81
2019-03-22T08:21:55.552Z,1021.85
2019-03-22T08:22:36.781Z,1021.85
2019-03-22T08:23:16.881Z,1021.83
2019-03-22T08:23:58.085Z,1021.84
2019-03-22T08:24:38.045Z,1021.83
2019-03-22T08:25:18.607Z,1021.75
2019-03-22T08:25:59.057Z,1021.79
2019-03-22T08:26:39.650Z,1021.79
2019-03-22T08:27:20.237Z,1021.78
2019-03-22T08:28:00.919Z,1021.8
2019-03-22T08:28:41.243Z,1021.82
2019-03-22T08:29:22.334Z,1021.79
2019-03-22T08:30:02.813Z,1021.77
2019-03-22T08:30:43.567Z,1021.74
2019-03-22T08:31:23.735Z,1021.77
2019-03-22T08:32:04.230Z,1021.77
2019-03-22T08:32:44.994Z,1021.77
2019-03-22T08:33:25.369Z,1021.76
2019-03-22T08:34:05.924Z,1021.77
2019-03-22T08:34:47.733Z,1021.71
2019-03-22T08:35:26.751Z,1021.74
2019-03-22T08:36:07.298Z,1021.72
2019-03-22T08:36:47.841Z,1021.72
2019-03-22T08:37:28.223Z,1021.74
2019-03-22T08:38:10.357Z,1021.73
2019-03-22T08:38:52.735Z,1021.7
2019-03-22T08:39:33.033Z,1021.76
2019-03-22T08:40:13.469Z,1021.7
2019-03-22T08:40:54.158Z,1021.72
2019-03-22T08:41:34.641Z,1021.73
2019-03-22T08:42:15.131Z,1021.73
2019-03-22T08:42:55.660Z,1021.73
2019-03-22T08:43:37.039Z,1021.68
2019-03-22T08:44:16.726Z,1021.68
2019-03-22T08:44:57.161Z,1021.67
2019-03-22T08:45:37.519Z,1021.69
2019-03-22T08:50:35.656Z,1021.65
2019-03-22T08:52:22.899Z,1021.66
2019-03-22T08:53:03.442Z,1021.68
2019-03-22T08:53:54.548Z,1021.66
2019-03-22T08:54:24.167Z,1021.68
2019-03-22T08:55:04.619Z,1021.69
2019-03-22T08:55:45.095Z,1021.68
2019-03-22T08:56:25.510Z,1021.67
2019-03-22T08:57:05.976Z,1021.67
2019-03-22T08:57:46.423Z,1021.65
2019-03-22T08:58:26.771Z,1021.67
2019-03-22T08:59:07.190Z,1021.66
2019-03-22T08:59:47.595Z,1021.64
2019-03-22T09:00:38.474Z,1021.63
2019-03-22T09:01:08.678Z,1021.65
2019-03-22T09:01:49.074Z,1021.66
2019-03-22T09:02:30.087Z,1021.66
2019-03-22T09:03:10.185Z,1021.67
2019-03-22T09:03:50.664Z,1021.65
2019-03-22T09:04:31.005Z,1021.68
2019-03-22T09:05:11.427Z,1021.68
2019-03-22T09:05:51.913Z,1021.69
2019-03-22T09:06:32.291Z,1021.63
2019-03-22T09:07:12.961Z,1021.65
2019-03-22T09:07:53.420Z,1021.66
2019-03-22T09:08:33.987Z,1021.67
2019-03-22T09:09:14.434Z,1021.66
2019-03-22T09:09:55.637Z,1021.64
2019-03-22T09:10:36.664Z,1021.64
2019-03-22T09:11:18.103Z,1021.62
2019-03-22T09:11:57.535Z,1021.67
2019-03-22T09:12:38.464Z,1021.65
2019-03-22T09:13:19.238Z,1021.63
2019-03-22T09:13:59.677Z,1021.57
2019-03-22T09:14:40.321Z,1021.56
2019-03-22T09:15:20.771Z,1021.57
2019-03-22T09:16:01.270Z,1021.55
2019-03-22T09:16:41.746Z,1021.54
2019-03-22T09:17:22.142Z,1021.53
2019-03-22T09:18:02.702Z,1021.55
2019-03-22T09:18:43.064Z,1021.5
2019-03-22T09:19:23.514Z,1021.52
2019-03-22T09:20:03.994Z,1021.52
2019-03-22T09:20:44.436Z,1021.46
2019-03-22T09:21:24.806Z,1021.5
2019-03-22T09:22:05.296Z,1021.5
2019-03-22T09:22:45.670Z,1021.45
2019-03-22T09:23:26.116Z,1021.45
2019-03-22T09:24:06.526Z,1021.44
2019-03-22T09:24:46.945Z,1021.44
2019-03-22T09:25:27.396Z,1021.43
2019-03-22T09:26:07.750Z,1021.4
2019-03-22T09:26:49.255Z,1021.39
2019-03-22T09:27:30.386Z,1021.42
2019-03-22T09:28:11.585Z,1021.4
2019-03-22T09:28:52.090Z,1021.39
2019-03-22T09:29:32.426Z,1021.36
2019-03-22T09:30:12.970Z,1021.36
2019-03-22T09:30:53.359Z,1021.35
2019-03-22T09:31:33.900Z,1021.35
2019-03-22T09:32:14.281Z,1021.32
2019-03-22T09:32:55.020Z,1021.31
2019-03-22T09:33:35.683Z,1021.35
2019-03-22T09:34:16.251Z,1021.31
2019-03-22T09:34:59.569Z,1021.3
2019-03-22T09:35:37.233Z,1021.34
2019-03-22T09:36:17.719Z,1021.33
2019-03-22T09:36:58.060Z,1021.3
2019-03-22T09:37:38.621Z,1021.34
2019-03-22T09:38:18.955Z,1021.32
2019-03-22T09:38:59.362Z,1021.33
2019-03-22T09:39:40.059Z,1021.31
2019-03-22T09:40:20.656Z,1021.31
2019-03-22T09:41:02.701Z,1021.29
2019-03-22T09:41:42.347Z,1021.29
2019-03-22T09:42:23.086Z,1021.27
2019-03-22T09:43:04.070Z,1021.27
2019-03-22T09:43:44.746Z,1021.26
2019-03-22T09:44:27.875Z,1021.22
2019-03-22T09:45:05.646Z,1021.23
2019-03-22T09:45:46.086Z,1021.2
2019-03-22T09:46:26.545Z,1021.23
2019-03-22T09:47:07.105Z,1021.21
2019-03-22T09:47:47.578Z,1021.21
2019-03-22T09:48:27.922Z,1021.22
2019-03-22T09:49:08.629Z,1021.2
2019-03-22T09:49:51.177Z,1021.2
2019-03-22T09:50:29.672Z,1021.19
2019-03-22T09:51:10.127Z,1021.24
2019-03-22T09:51:50.893Z,1021.16
2019-03-22T09:52:33.724Z,1021.17
2019-03-22T09:53:12.599Z,1021.19
2019-03-22T09:53:52.675Z,1021.15
2019-03-22T09:54:33.164Z,1021.17
2019-03-22T09:55:14.432Z,1021.17
2019-03-22T09:55:53.904Z,1021.14
2019-03-22T09:56:46.259Z,1021.12
2019-03-22T09:57:14.805Z,1021.17
2019-03-22T09:57:55.380Z,1021.15
2019-03-22T09:58:36.015Z,1021.17
2019-03-22T10:03:46.281Z,1021.11
2019-03-22T10:04:26.682Z,1021.12
2019-03-22T10:05:07.087Z,1021.08
2019-03-22T10:05:47.549Z,1021.09